Time;durP1;ratioP1;P1;durP2;ratioP2;P2;SDS_P1;SDS_P2;PMS_P1;PMS_P2;Temp;Humidity;BMP_temperature;BMP_pressure;BME280_temperature;BME280_humidity;BME280_pressure;Samples;Min_cycle;Max_cycle;Signal;HPM_P1;HPM_P2
2022/11/03 00:01:46;;;;;;;31.00;16.82;;;;;;;9.47;100.00;150035.41;1778998;79;21030;-64
2022/11/03 00:04:15;;;;;;;33.53;18.32;;;;;;;9.44;100.00;150028.95;1778763;80;21078;-65
2022/11/03 00:06:44;;;;;;;34.50;19.25;;;;;;;9.42;100.00;150023.77;1779205;80;21005;-65
2022/11/03 00:09:13;;;;;;;32.53;18.57;;;;;;;9.40;100.00;150017.27;1779049;79;21121;-65
2022/11/03 00:11:42;;;;;;;33.58;17.75;;;;;;;9.37;100.00;150010.77;1781089;78;21000;-64
2022/11/03 00:14:09;;;;;;;30.55;17.70;;;;;;;9.34;100.00;150001.72;1819932;78;21001;-64
2022/11/03 00:16:38;;;;;;;30.85;17.42;;;;;;;9.32;100.00;149997.81;1819990;78;21430;-65
2022/11/03 00:19:06;;;;;;;30.27;17.40;;;;;;;9.29;100.00;149990.03;1820354;78;21540;-64
2022/11/03 00:21:35;;;;;;;31.55;18.82;;;;;;;9.24;100.00;149978.36;1819973;78;21489;-64
2022/11/03 00:24:03;;;;;;;29.60;17.27;;;;;;;9.23;100.00;149974.50;1820230;78;21963;-65
2022/11/03 00:26:32;;;;;;;33.33;18.52;;;;;;;9.22;100.00;149971.91;1819920;78;21068;-65
2022/11/03 00:29:12;;;;;;;33.70;18.48;;;;;;;9.21;100.00;149969.31;1819547;78;20960;-64
2022/11/03 00:31:42;;;;;;;33.15;17.80;;;;;;;9.17;100.00;149960.22;1814257;78;21607;-65
2022/11/03 00:34:09;;;;;;;37.00;18.10;;;;;;;9.16;100.00;149958.91;1814069;79;21095;-65
2022/11/03 00:36:41;;;;;;;36.10;18.00;;;;;;;9.17;100.00;149960.22;1813966;79;22114;-65
2022/11/03 00:39:08;;;;;;;33.10;18.27;;;;;;;9.17;100.00;149960.22;1814120;78;20965;-65
2022/11/03 00:41:35;;;;;;;29.55;17.35;;;;;;;9.16;100.00;149958.91;1814147;79;21042;-66
2022/11/03 00:44:03;;;;;;;31.23;17.85;;;;;;;9.14;100.00;149953.72;1814034;79;21013;-65
2022/11/03 00:46:36;;;;;;;31.33;17.60;;;;;;;9.12;100.00;149947.27;1813806;79;21067;-65
2022/11/03 00:49:03;;;;;;;33.58;16.65;;;;;;;9.08;100.00;149936.91;1813360;78;21311;-66
2022/11/03 00:51:30;;;;;;;30.20;16.60;;;;;;;9.03;100.00;149926.50;1813381;79;20992;-67
2022/11/03 00:53:59;;;;;;;34.35;16.65;;;;;;;9.00;100.00;149917.47;1814179;79;21020;-65
2022/11/03 00:56:37;;;;;;;32.83;17.73;;;;;;;8.97;100.00;149910.97;1813929;79;20981;-64
2022/11/03 00:59:05;;;;;;;30.00;17.85;;;;;;;8.96;100.00;149907.09;1814505;79;20984;-66
2022/11/03 01:01:42;;;;;;;33.98;17.10;;;;;;;8.94;100.00;149901.87;1813934;79;21430;-65
2022/11/03 01:06:56;;;;;;;30.35;16.85;;;;;;;8.92;100.00;149896.69;1814111;79;21016;-65
2022/11/03 01:09:34;;;;;;;35.15;17.40;;;;;;;8.92;100.00;149896.69;1814306;79;21010;-66
2022/11/03 01:12:14;;;;;;;33.55;17.37;;;;;;;8.91;100.00;149895.42;1813256;79;21101;-65
2022/11/03 01:14:49;;;;;;;32.25;17.15;;;;;;;8.91;100.00;149895.42;1809106;79;20953;-65
2022/11/03 01:17:24;;;;;;;30.92;17.27;;;;;;;8.91;100.00;149895.42;1808981;79;21379;-64
2022/11/03 01:19:51;;;;;;;34.40;17.98;;;;;;;8.92;100.00;149896.69;1809126;78;20933;-65
2022/11/03 01:22:19;;;;;;;28.55;16.60;;;;;;;8.94;100.00;149901.87;1808916;79;21021;-66
2022/11/03 01:24:46;;;;;;;33.25;17.05;;;;;;;8.93;100.00;149899.28;1809047;79;21064;-65
2022/11/03 01:27:16;;;;;;;32.95;17.65;;;;;;;8.92;100.00;149896.69;1809017;79;21343;-65
2022/11/03 01:29:43;;;;;;;37.93;17.75;;;;;;;8.89;100.00;149891.50;1809046;79;21080;-64
2022/11/03 01:32:13;;;;;;;32.85;17.80;;;;;;;8.87;100.00;149886.33;1809271;79;21017;-66
2022/11/03 01:34:43;;;;;;;32.50;16.82;;;;;;;8.85;100.00;149881.16;1807503;78;20945;-65
2022/11/03 01:37:11;;;;;;;32.65;17.77;;;;;;;8.82;100.00;149873.38;1808903;79;21033;-66
2022/11/03 01:39:38;;;;;;;34.67;18.73;;;;;;;8.82;100.00;149873.38;1809150;79;21199;-65
2022/11/03 01:42:06;;;;;;;36.03;18.92;;;;;;;8.83;100.00;149874.66;1808887;78;21079;-64
2022/11/03 01:44:40;;;;;;;33.80;18.45;;;;;;;8.82;100.00;149872.06;1808873;78;22192;-64
2022/11/03 01:47:25;;;;;;;33.50;17.55;;;;;;;8.81;100.00;149870.80;1808803;79;20953;-65
2022/11/03 01:50:08;;;;;;;34.03;18.23;;;;;;;8.80;100.00;149868.20;1797699;78;20971;-64
2022/11/03 01:52:47;;;;;;;30.77;17.20;;;;;;;8.79;100.00;149865.61;1772877;80;21483;-65
2022/11/03 01:55:23;;;;;;;35.00;17.67;;;;;;;8.77;100.00;149860.44;1772446;80;21063;-66
2022/11/03 01:57:59;;;;;;;29.42;17.10;;;;;;;8.72;100.00;149847.44;1772933;81;21101;-66
2022/11/03 02:00:25;;;;;;;33.67;17.52;;;;;;;8.70;100.00;149843.58;1772679;80;21560;-66
2022/11/03 02:02:52;;;;;;;35.30;19.40;;;;;;;8.69;100.00;149839.67;1772862;81;20995;-66
2022/11/03 02:05:19;;;;;;;35.92;18.50;;;;;;;8.66;100.00;149831.91;1772388;80;22159;-66
2022/11/03 02:07:59;;;;;;;34.08;17.55;;;;;;;8.66;100.00;149831.91;1772512;81;21484;-64
2022/11/03 02:10:25;;;;;;;34.58;18.48;;;;;;;8.64;100.00;149826.72;1779969;80;21511;-65
2022/11/03 02:12:54;;;;;;;42.23;18.35;;;;;;;8.64;100.00;149826.72;1780273;80;20979;-65
2022/11/03 02:15:21;;;;;;;31.95;17.27;;;;;;;8.64;100.00;149828.05;1774306;80;21005;-65
2022/11/03 02:17:49;;;;;;;34.35;18.82;;;;;;;8.64;100.00;149828.05;1742356;80;21906;-65
2022/11/03 02:20:20;;;;;;;34.53;19.40;;;;;;;8.64;100.00;149826.72;1774396;79;21085;-65
2022/11/03 02:23:08;;;;;;;38.83;18.55;;;;;;;8.63;100.00;149824.13;1774605;80;20903;-65
2022/11/03 02:25:50;;;;;;;37.70;18.85;;;;;;;8.63;100.00;149824.13;1774472;80;21416;-65
2022/11/03 02:28:20;;;;;;;36.15;18.80;;;;;;;8.59;100.00;149816.36;1774602;80;21089;-64
2022/11/03 02:30:58;;;;;;;36.08;18.77;;;;;;;8.56;100.00;149807.28;1762824;80;21015;-66
2022/11/03 02:33:51;;;;;;;38.73;19.15;;;;;;;8.52;100.00;149798.23;1746546;82;21473;-66
2022/11/03 02:36:32;;;;;;;39.08;19.15;;;;;;;8.51;100.00;149794.33;1743702;80;21039;-66
2022/11/03 02:39:25;;;;;;;37.48;19.75;;;;;;;8.45;100.00;149781.34;1716763;82;21559;-67
2022/11/03 02:41:54;;;;;;;36.85;19.32;;;;;;;8.42;100.00;149773.56;1746667;82;21575;-65
2022/11/03 02:44:21;;;;;;;33.23;18.35;;;;;;;8.37;100.00;149759.31;1746244;81;21139;-65
2022/11/03 02:46:51;;;;;;;37.05;18.85;;;;;;;8.34;100.00;149751.53;1746387;80;21041;-66
2022/11/03 02:49:18;;;;;;;36.58;19.35;;;;;;;8.33;100.00;149748.95;1749788;80;21086;-65
2022/11/03 02:51:45;;;;;;;36.08;18.42;;;;;;;8.30;100.00;149743.78;1746417;80;21425;-65
2022/11/03 02:54:25;;;;;;;39.10;19.32;;;;;;;8.28;100.00;149738.55;1746557;82;21094;-65
2022/11/03 02:56:55;;;;;;;35.45;19.27;;;;;;;8.25;100.00;149730.78;1746320;82;21228;-66
2022/11/03 02:59:27;;;;;;;37.45;18.55;;;;;;;8.24;100.00;149728.19;1746244;82;20900;-65
2022/11/03 03:02:08;;;;;;;33.83;18.93;;;;;;;8.24;100.00;149728.19;1746444;82;20980;-65
2022/11/03 03:04:42;;;;;;;40.08;20.05;;;;;;;8.23;100.00;149725.61;1745669;80;21023;-65
2022/11/03 03:07:14;;;;;;;35.92;18.92;;;;;;;8.21;100.00;149720.42;1746427;82;21546;-65
2022/11/03 03:09:48;;;;;;;34.40;19.35;;;;;;;8.21;100.00;149720.42;1752067;80;21142;-65
2022/11/03 03:12:15;;;;;;;42.98;19.70;;;;;;;8.21;100.00;149719.16;1777923;79;21058;-65
2022/11/03 03:14:44;;;;;;;37.63;19.57;;;;;;;8.19;100.00;149715.25;1722322;80;20999;-64
2022/11/03 03:17:50;;;;;;;37.20;19.57;;;;;;;8.20;100.00;149717.84;1778911;80;20995;-64
2022/11/03 03:20:26;;;;;;;36.17;19.17;;;;;;;8.18;100.00;149712.66;1696538;84;21090;-66
2022/11/03 03:22:59;;;;;;;39.20;19.23;;;;;;;8.18;100.00;149712.66;1754655;80;21884;-64
2022/11/03 03:25:37;;;;;;;39.73;19.70;;;;;;;8.18;100.00;149712.66;1778842;80;21014;-64
2022/11/03 03:28:11;;;;;;;36.83;19.37;;;;;;;8.16;100.00;149708.75;1778861;80;21069;-66
2022/11/03 03:30:38;;;;;;;36.77;18.87;;;;;;;8.15;100.00;149706.16;1749681;79;21049;-64
2022/11/03 03:33:06;;;;;;;40.83;19.92;;;;;;;8.13;100.00;149699.72;1779047;79;21038;-65
2022/11/03 03:35:34;;;;;;;35.15;19.32;;;;;;;8.11;100.00;149694.55;1778936;80;21241;-65
2022/11/03 03:38:09;;;;;;;40.95;19.37;;;;;;;8.07;100.00;149684.14;1778797;80;21478;-65
2022/11/03 03:40:38;;;;;;;37.65;20.40;;;;;;;8.05;100.00;149678.97;1778972;79;21437;-65
2022/11/03 03:43:07;;;;;;;42.30;19.55;;;;;;;8.01;100.00;149669.94;1778861;80;21128;-65
2022/11/03 03:45:34;;;;;;;39.85;19.35;;;;;;;7.98;100.00;149663.44;1746963;79;21416;-66
2022/11/03 03:48:03;;;;;;;37.88;18.82;;;;;;;7.96;100.00;149658.27;1746359;80;21250;-66
2022/11/03 03:50:33;;;;;;;35.40;17.87;;;;;;;7.92;100.00;149647.91;1778776;79;21000;-66
2022/11/03 03:53:01;;;;;;;42.30;19.87;;;;;;;7.92;100.00;149646.59;1778929;80;21023;-61
2022/11/03 03:55:36;;;;;;;41.77;19.73;;;;;;;7.88;100.00;149638.83;1746499;80;21051;-61
2022/11/03 03:58:03;;;;;;;35.52;18.98;;;;;;;7.87;100.00;149634.97;1778825;80;22100;-60
2022/11/03 04:00:30;;;;;;;37.17;18.80;;;;;;;7.85;100.00;149631.06;1778686;80;21423;-60
2022/11/03 04:02:58;;;;;;;35.92;19.32;;;;;;;7.84;100.00;149627.16;1778806;79;21014;-60
2022/11/03 04:05:26;;;;;;;35.83;19.45;;;;;;;7.84;100.00;149627.16;1778836;80;21110;-60
2022/11/03 04:07:53;;;;;;;35.55;18.57;;;;;;;7.84;100.00;149628.47;1778795;79;20947;-60
2022/11/03 04:10:21;;;;;;;37.20;19.32;;;;;;;7.86;100.00;149632.38;1792154;79;21010;-60
2022/11/03 04:23:54;;;;;;;34.78;18.95;;;;;;;7.88;100.00;149637.56;1787644;80;20943;-60
2022/11/03 04:26:21;;;;;;;39.00;20.23;;;;;;;7.85;100.00;149631.06;1787335;80;21252;-60
2022/11/03 04:28:51;;;;;;;33.90;17.85;;;;;;;7.83;100.00;149624.56;1787453;79;21049;-60
2022/11/03 04:31:18;;;;;;;37.03;19.10;;;;;;;7.78;100.00;149612.95;1783190;79;21051;-60
2022/11/03 04:33:46;;;;;;;35.85;19.35;;;;;;;7.76;100.00;149606.45;1779747;80;21508;-59
2022/11/03 04:36:21;;;;;;;35.95;17.87;;;;;;;7.76;100.00;149606.45;1779654;80;21098;-59
2022/11/03 04:38:49;;;;;;;37.80;18.35;;;;;;;7.74;100.00;149603.86;1779896;80;21240;-60
2022/11/03 04:41:20;;;;;;;33.23;17.77;;;;;;;7.75;100.00;149605.19;1779821;80;21148;-60
2022/11/03 04:43:48;;;;;;;29.87;16.65;;;;;;;7.76;100.00;149606.45;1778629;80;21014;-60
2022/11/03 04:46:16;;;;;;;38.65;17.77;;;;;;;7.77;100.00;149610.36;1747446;80;21547;-60
2022/11/03 04:48:43;;;;;;;30.90;16.27;;;;;;;7.78;100.00;149612.95;1779684;80;21050;-60
2022/11/03 04:51:16;;;;;;;34.45;18.60;;;;;;;7.81;100.00;149619.39;1779905;80;21229;-59
2022/11/03 04:53:50;;;;;;;35.98;17.60;;;;;;;7.83;100.00;149625.89;1779732;80;20999;-59
2022/11/03 04:56:20;;;;;;;33.30;18.45;;;;;;;7.85;100.00;149629.80;1780153;80;21039;-61
2022/11/03 04:58:47;;;;;;;32.05;17.30;;;;;;;7.85;100.00;149629.80;1779749;80;21058;-61
2022/11/03 05:01:17;;;;;;;33.83;18.75;;;;;;;7.83;100.00;149624.56;1780022;80;21468;-61
2022/11/03 05:03:45;;;;;;;32.90;17.02;;;;;;;7.81;100.00;149620.72;1779734;80;21132;-60
2022/11/03 05:06:15;;;;;;;32.33;16.23;;;;;;;7.83;100.00;149624.56;1779931;80;20995;-60
2022/11/03 05:08:46;;;;;;;38.25;18.25;;;;;;;7.87;100.00;149634.97;1779594;80;21015;-60
2022/11/03 05:11:20;;;;;;;34.92;17.60;;;;;;;7.92;100.00;149647.91;1754749;80;21066;-60
2022/11/03 05:13:49;;;;;;;34.83;17.42;;;;;;;7.97;100.00;149659.58;1771913;80;21018;-61
2022/11/03 05:16:16;;;;;;;30.72;16.82;;;;;;;8.01;100.00;149671.20;1747847;80;21135;-61
2022/11/03 05:18:44;;;;;;;34.65;17.32;;;;;;;8.07;100.00;149684.14;1779555;80;21031;-61
2022/11/03 05:21:21;;;;;;;30.62;16.20;;;;;;;8.10;100.00;149691.95;1779921;80;21065;-60
2022/11/03 05:23:59;;;;;;;32.65;17.37;;;;;;;8.10;100.00;149691.95;1779777;80;21085;-61
2022/11/03 05:26:30;;;;;;;33.78;17.15;;;;;;;8.09;100.00;149689.38;1779844;80;21066;-60
2022/11/03 05:29:03;;;;;;;33.95;16.65;;;;;;;8.11;100.00;149694.55;1779870;80;21727;-60
2022/11/03 05:31:33;;;;;;;33.45;16.90;;;;;;;8.15;100.00;149704.89;1769726;80;20990;-60
2022/11/03 05:34:02;;;;;;;30.90;16.50;;;;;;;8.19;100.00;149715.25;1779297;80;21069;-61
2022/11/03 05:36:30;;;;;;;31.40;17.20;;;;;;;8.23;100.00;149725.61;1779685;80;20999;-61
2022/11/03 05:39:21;;;;;;;33.53;17.75;;;;;;;8.33;100.00;149748.95;1779711;80;21069;-62
2022/11/03 05:41:48;;;;;;;32.60;17.07;;;;;;;8.39;100.00;149765.75;1779959;80;21304;-60
2022/11/03 05:44:35;;;;;;;35.73;16.90;;;;;;;8.49;100.00;149790.38;1747403;80;21013;-61
2022/11/03 05:47:14;;;;;;;28.40;16.07;;;;;;;8.56;100.00;149808.59;1736508;80;21053;-60
2022/11/03 05:49:41;;;;;;;31.40;16.73;;;;;;;8.64;100.00;149826.72;1765346;80;21097;-60
2022/11/03 05:52:16;;;;;;;31.87;17.10;;;;;;;8.71;100.00;149844.84;1779748;80;20983;-61
2022/11/03 05:54:43;;;;;;;30.72;16.57;;;;;;;8.80;100.00;149866.88;1778064;80;21246;-61
2022/11/03 05:57:12;;;;;;;28.12;16.87;;;;;;;8.88;100.00;149887.66;1779874;80;20971;-60
2022/11/03 05:59:39;;;;;;;31.95;16.37;;;;;;;8.94;100.00;149903.19;1779905;80;21816;-61
2022/11/03 06:02:24;;;;;;;28.73;16.70;;;;;;;9.02;100.00;149922.64;1779771;80;20995;-60
2022/11/03 06:04:51;;;;;;;28.10;16.50;;;;;;;9.10;100.00;149943.36;1740403;80;21011;-61
2022/11/03 06:07:26;;;;;;;30.60;15.93;;;;;;;9.14;100.00;149953.72;1779737;80;22067;-61
2022/11/03 06:09:52;;;;;;;;;;;;;;;9.24;100.00;149977.08;1782696;80;21527;-61
2022/11/03 06:12:20;;;;;;;32.55;16.50;;;;;;;9.34;100.00;150002.98;1779511;80;20457;-60
2022/11/03 06:14:48;;;;;;;31.40;17.07;;;;;;;9.44;100.00;150028.95;1779723;80;21023;-61
2022/11/03 06:17:23;;;;;;;27.50;16.27;;;;;;;9.51;100.00;150044.48;1779261;80;21217;-61
2022/11/03 06:19:58;;;;;;;31.20;16.87;;;;;;;9.54;100.00;150052.27;1779666;80;21533;-60
2022/11/03 06:22:36;;;;;;;31.25;17.25;;;;;;;9.60;100.00;150067.81;1779564;80;21566;-61
2022/11/03 06:25:27;;;;;;;33.88;16.97;;;;;;;9.65;100.00;150079.50;1779852;80;21046;-61
2022/11/03 06:27:57;;;;;;;32.00;16.50;;;;;;;9.71;100.00;150096.36;1779849;80;21042;-61
2022/11/03 06:30:31;;;;;;;29.10;16.67;;;;;;;9.81;100.00;150119.69;1779504;80;21125;-62
2022/11/03 06:33:05;;;;;;;32.23;16.20;;;;;;;9.87;100.00;150135.28;1776335;80;20954;-61
2022/11/03 06:35:33;;;;;;;31.25;16.85;;;;;;;9.96;100.00;150158.61;1776453;80;21095;-63
2022/11/03 06:38:00;;;;;;;30.80;17.73;;;;;;;10.10;100.00;150192.36;1750450;80;21011;-62
2022/11/03 06:40:36;;;;;;;26.12;15.32;;;;;;;10.21;100.00;150219.59;1776361;80;21474;-61
2022/11/03 06:43:11;;;;;;;33.70;16.10;;;;;;;10.31;100.00;150246.84;1776176;80;21471;-60
2022/11/03 06:45:38;;;;;;;29.48;15.30;;;;;;;10.47;100.00;150285.78;1770630;80;21153;-62
2022/11/03 06:48:07;;;;;;;24.43;13.10;;;;;;;10.62;100.00;150323.47;1776267;80;21421;-60
2022/11/03 06:50:34;;;;;;;28.27;14.87;;;;;;;10.77;100.00;150359.77;1776463;80;21500;-61
2022/11/03 06:53:05;;;;;;;25.92;13.35;;;;;;;10.89;100.00;150392.22;1776038;79;21038;-61
2022/11/03 06:55:33;;;;;;;18.62;12.50;;;;;;;10.99;100.00;150415.59;1764545;81;21091;-61
2022/11/03 06:58:17;;;;;;;22.15;12.47;;;;;;;11.08;100.00;150438.94;1794690;79;22073;-60
2022/11/03 07:00:46;;;;;;;22.65;12.47;;;;;;;11.15;100.00;150457.11;1786250;79;21036;-60
2022/11/03 07:03:26;;;;;;;22.73;12.93;;;;;;;11.26;100.00;150483.09;1788698;79;20984;-60
2022/11/03 07:06:10;;;;;;;20.45;12.28;;;;;;;11.36;100.00;150509.05;1764434;80;20965;-61
2022/11/03 07:08:43;;;;;;;19.20;11.97;;;;;;;11.46;100.00;150535.03;1774815;80;21029;-61
2022/11/03 07:11:24;;;;;;;18.20;10.98;;;;;;;11.57;100.00;150560.98;1771438;80;21517;-60
2022/11/03 07:13:53;;;;;;;17.92;11.08;;;;;;;11.68;100.00;150589.58;1760518;80;21028;-60
2022/11/03 07:16:34;;;;;;;22.05;11.88;;;;;;;11.82;99.76;150623.31;1751040;80;21044;-60
2022/11/03 07:19:05;;;;;;;19.62;11.95;;;;;;;11.95;99.46;150657.11;1774052;80;42715;-59
2022/11/03 07:22:00;;;;;;;20.43;11.75;;;;;;;12.12;98.80;150700.02;1770964;80;21017;-61
2022/11/03 07:24:38;;;;;;;16.12;9.90;;;;;;;12.24;97.98;150729.89;1769319;80;21869;-60
2022/11/03 07:27:26;;;;;;;18.02;10.40;;;;;;;12.38;97.24;150763.69;1769037;80;21593;-60
2022/11/03 07:30:00;;;;;;;18.10;10.60;;;;;;;12.51;96.85;150797.50;1774932;80;21669;-61
2022/11/03 07:32:32;;;;;;;23.67;11.80;;;;;;;12.66;96.05;150833.84;1747674;79;21130;-60
2022/11/03 07:35:20;;;;;;;21.05;10.20;;;;;;;12.77;95.55;150861.16;1760468;79;21112;-61
2022/11/03 07:37:49;;;;;;;17.32;9.75;;;;;;;12.86;95.23;150884.58;1760515;79;21246;-60
2022/11/03 07:40:23;;;;;;;16.42;9.25;;;;;;;12.94;94.74;150904.08;1772014;79;21011;-60
2022/11/03 07:42:51;;;;;;;14.90;9.15;;;;;;;12.99;94.16;150917.06;1747851;79;21031;-60
2022/11/03 07:45:44;;;;;;;17.75;10.18;;;;;;;13.00;94.10;150919.66;1753612;80;21549;-62
2022/11/03 07:48:19;;;;;;;16.85;8.55;;;;;;;13.01;94.23;150922.25;1793271;79;21504;-60
2022/11/03 07:50:47;;;;;;;17.23;9.15;;;;;;;13.06;94.32;150935.25;1790039;79;21943;-61
2022/11/03 07:53:37;;;;;;;16.70;8.63;;;;;;;13.11;94.22;150948.23;1759353;78;21479;-61
2022/11/03 07:56:20;;;;;;;19.48;9.48;;;;;;;13.15;93.86;150958.67;1766650;79;20949;-60
2022/11/03 07:59:00;;;;;;;16.55;10.00;;;;;;;13.18;93.64;150966.47;1781630;80;21025;-59
2022/11/03 08:01:50;;;;;;;14.05;8.55;;;;;;;13.21;93.61;150971.66;1728535;81;21056;-60
2022/11/03 08:04:22;;;;;;;16.82;10.23;;;;;;;13.18;93.49;150966.47;1760960;80;21087;-60
2022/11/03 08:06:49;;;;;;;19.98;10.48;;;;;;;13.16;93.73;150961.28;1755109;80;21004;-61
2022/11/03 08:09:16;;;;;;;17.75;9.63;;;;;;;13.15;94.04;150958.67;1770488;80;21056;-61
2022/11/03 08:11:43;;;;;;;17.23;10.08;;;;;;;13.14;94.36;150956.03;1782441;79;20971;-61
